createdAt,value
2022-09-07T00:01:00.679Z,264.77
2022-09-07T00:08:02.630Z,309.10
2022-09-07T00:15:08.245Z,334.67
2022-09-07T00:22:09.903Z,324.70
2022-09-07T00:29:11.637Z,284.98
2022-09-07T00:36:13.410Z,311.13
2022-09-07T00:43:17.471Z,328.35
2022-09-07T00:50:26.363Z,328.95
2022-09-07T00:57:28.210Z,308.95
2022-09-07T01:04:30.220Z,313.83
2022-09-07T01:11:33.831Z,299.27
2022-09-07T01:19:07.313Z,300.50
2022-09-07T01:26:27.496Z,304.20
2022-09-07T01:33:43.472Z,286.20
2022-09-07T01:40:59.646Z,318.35
2022-09-07T01:48:04.654Z,305.73
2022-09-07T01:55:13.612Z,354.75
2022-09-07T02:02:17.987Z,292.85
2022-09-07T02:09:30.743Z,331.38
2022-09-07T02:16:33.457Z,298.83
2022-09-07T02:23:47.647Z,302.35
2022-09-07T02:30:49.287Z,287.10
2022-09-07T02:37:50.962Z,290.20
2022-09-07T02:44:52.655Z,296.30
2022-09-07T02:52:06.376Z,288.42
2022-09-07T02:59:14.256Z,303.65
2022-09-07T03:06:28.533Z,357.73
2022-09-07T03:13:30.350Z,337.35
2022-09-07T03:20:31.984Z,292.50
2022-09-07T03:27:33.637Z,285.15
2022-09-07T03:34:36.239Z,296.45
2022-09-07T03:41:37.826Z,371.48
2022-09-07T03:48:39.487Z,337.48
2022-09-07T03:55:41.148Z,283.88
2022-09-07T04:02:42.909Z,278.27
2022-09-07T04:09:45.438Z,270.98
2022-09-07T04:16:48.878Z,264.02
2022-09-07T04:23:51.678Z,257.52
2022-09-07T04:30:54.827Z,262.58
2022-09-07T04:37:56.938Z,263.80
2022-09-07T04:44:58.586Z,250.60
2022-09-07T04:52:00.361Z,254.93
2022-09-07T04:59:02.269Z,244.30
2022-09-07T05:06:04.766Z,251.10
2022-09-07T05:13:06.432Z,248.63
2022-09-07T05:20:08.332Z,245.85
2022-09-07T05:27:10.041Z,243.93
2022-09-07T05:41:33.349Z,235.93
2022-09-07T05:48:35.138Z,242.88
2022-09-07T05:55:36.752Z,240.30
2022-09-07T06:02:39.875Z,234.80
2022-09-07T06:17:03.401Z,241.90
2022-09-07T06:24:05.665Z,238.82
2022-09-07T06:31:11.192Z,232.88
2022-09-07T06:38:12.940Z,255.95
2022-09-07T06:45:14.556Z,239.20
2022-09-07T06:52:16.297Z,242.85
2022-09-07T06:59:18.008Z,254.02
2022-09-07T07:06:19.998Z,259.60
2022-09-07T07:20:22.177Z,284.98
2022-09-07T07:27:23.862Z,295.85
2022-09-07T07:34:25.807Z,291.67
2022-09-07T07:48:51.941Z,307.35
2022-09-07T07:55:53.625Z,425.42
2022-09-07T08:02:55.421Z,424.00
2022-09-07T08:09:56.970Z,425.05
2022-09-07T08:16:58.553Z,429.23
2022-09-07T08:24:00.200Z,395.17
2022-09-07T08:31:10.649Z,403.75
2022-09-07T08:38:12.413Z,436.60
2022-09-07T08:45:16.113Z,417.92
2022-09-07T08:52:26.346Z,400.67
2022-09-07T08:59:31.411Z,384.35
2022-09-07T09:06:48.318Z,363.50
2022-09-07T09:14:03.660Z,347.17
2022-09-07T09:21:07.865Z,326.67
2022-09-07T09:28:12.562Z,360.52
2022-09-07T09:35:26.336Z,344.08
2022-09-07T09:42:27.920Z,328.13
2022-09-07T09:49:34.833Z,291.48
2022-09-07T09:56:41.494Z,329.27
2022-09-07T10:04:00.898Z,105.45
2022-09-07T10:11:09.647Z,96.00
2022-09-07T10:18:56.476Z,86.47
2022-09-07T10:25:58.074Z,51.03
2022-09-07T10:33:04.350Z,85.15
2022-09-07T10:40:30.019Z,80.55
2022-09-07T10:47:50.547Z,69.40
2022-09-07T10:54:56.821Z,79.75
2022-09-07T11:02:16.961Z,104.07
2022-09-07T11:09:43.398Z,95.70
2022-09-07T11:16:52.908Z,112.18
2022-09-07T11:24:11.159Z,123.22
2022-09-07T11:31:35.918Z,106.53
2022-09-07T11:38:44.855Z,111.43
2022-09-07T11:45:53.657Z,102.95
2022-09-07T11:53:19.425Z,84.47
2022-09-07T12:00:27.621Z,81.18
2022-09-07T12:08:04.613Z,79.82
2022-09-07T12:15:25.818Z,140.30
2022-09-07T12:22:27.413Z,138.27
2022-09-07T12:29:29.336Z,139.40
2022-09-07T12:36:30.818Z,108.75
2022-09-07T12:43:42.597Z,107.47
2022-09-07T12:51:06.111Z,110.38
2022-09-07T12:58:17.221Z,90.32
2022-09-07T13:05:30.826Z,84.85
2022-09-07T13:19:55.629Z,133.07
2022-09-07T13:27:05.865Z,126.95
2022-09-07T13:34:31.387Z,138.93
2022-09-07T13:41:37.194Z,157.23
2022-09-07T13:48:42.076Z,162.88
2022-09-07T13:55:43.647Z,178.20
2022-09-07T14:02:45.331Z,182.38
2022-09-07T14:09:49.944Z,149.40
2022-09-07T14:17:04.554Z,159.52
2022-09-07T14:24:22.698Z,145.32
2022-09-07T14:31:24.881Z,138.52
2022-09-07T14:45:52.722Z,129.30
2022-09-07T15:00:21.154Z,186.70
2022-09-07T15:07:29.839Z,208.10
2022-09-07T15:21:33.649Z,182.38
2022-09-07T15:35:57.502Z,145.18
2022-09-07T15:43:02.070Z,148.05
2022-09-07T15:50:07.348Z,170.02
2022-09-07T16:04:30.737Z,185.25
2022-09-07T16:11:35.205Z,115.88
2022-09-07T16:18:37.616Z,142.15
2022-09-07T16:25:39.582Z,147.60
2022-09-07T16:32:44.788Z,154.95
2022-09-07T16:39:46.643Z,162.77
2022-09-07T16:46:48.461Z,157.70
2022-09-07T16:53:51.146Z,186.55
2022-09-07T17:00:52.803Z,190.85
2022-09-07T17:07:54.769Z,213.30
2022-09-07T17:14:56.344Z,195.10
2022-09-07T17:21:59.633Z,212.60
2022-09-07T17:29:01.393Z,207.85
2022-09-07T17:36:05.083Z,176.07
2022-09-07T17:50:28.244Z,199.35
2022-09-07T17:57:31.562Z,203.85
2022-09-07T18:04:35.628Z,220.43
2022-09-07T18:11:46.409Z,223.93
2022-09-07T18:18:49.192Z,211.68
2022-09-07T18:25:57.992Z,203.38
2022-09-07T18:32:59.870Z,205.82
2022-09-07T18:40:01.848Z,240.77
2022-09-07T18:47:03.596Z,246.93
2022-09-07T18:54:05.229Z,246.40
2022-09-07T19:01:08.192Z,252.13
2022-09-07T19:08:09.830Z,241.88
2022-09-07T19:15:11.402Z,240.98
2022-09-07T19:22:13.051Z,245.60
2022-09-07T19:29:17.917Z,212.23
2022-09-07T19:36:19.473Z,241.68
2022-09-07T19:43:21.047Z,233.88
2022-09-07T19:50:22.647Z,239.52
2022-09-07T19:57:24.307Z,233.65
2022-09-07T20:04:25.936Z,242.48
2022-09-07T20:11:28.561Z,234.25
2022-09-07T20:18:30.168Z,254.30
2022-09-07T20:25:31.717Z,259.00
2022-09-07T20:32:33.881Z,254.25
2022-09-07T20:39:39.130Z,235.52
2022-09-07T20:46:41.326Z,219.95
2022-09-07T20:53:43.079Z,218.02
2022-09-07T21:00:50.511Z,221.07
2022-09-07T21:07:54.116Z,208.55
2022-09-07T21:14:55.872Z,206.20
2022-09-07T21:21:57.452Z,229.57
2022-09-07T21:29:03.686Z,210.10
2022-09-07T21:36:05.816Z,211.50
2022-09-07T21:43:07.373Z,211.00
2022-09-07T21:50:08.967Z,187.90
2022-09-07T21:57:10.754Z,198.98
2022-09-07T22:04:12.376Z,202.15
2022-09-07T22:11:16.491Z,203.05
2022-09-07T22:18:18.069Z,202.63
2022-09-07T22:25:19.647Z,205.30
2022-09-07T22:32:21.266Z,214.48
2022-09-07T22:39:22.825Z,228.40
2022-09-07T22:46:26.059Z,222.60
2022-09-07T22:53:29.011Z,220.82
2022-09-07T23:00:30.661Z,224.35
2022-09-07T23:07:32.237Z,207.43
2022-09-07T23:14:33.917Z,214.38
2022-09-07T23:21:35.472Z,213.10
2022-09-07T23:28:37.046Z,216.10
2022-09-07T23:35:38.607Z,226.20
2022-09-07T23:42:40.154Z,227.18
2022-09-07T23:49:41.785Z,225.70
2022-09-07T23:56:43.371Z,231.38
